KONT/ONT METAR and TAF weather

Enter ICAO airport designator
Station Type Date Time Source
KONT METAR 2019/12/10 02:53 UTC NOAA

KONT 100253Z 26005KT 10SM CLR 14/08 A3009 RMK AO2 SLP185 T01440083 53017


Station Type Date Time Source
KONT Decoded METAR 2019/12/10 02:53 UTC NOAA

ONTARIO INTERNATIONAL AIRPORT, CA, United States (KONT) 34-03N 117-35W 275M
Dec 09, 2019 - 09:53 PM EST / 2019.12.10 0253 UTC
Wind: from the W (260 degrees) at 6 MPH (5 KT):0
Visibility: 10 mile(s):0
Sky conditions: clear
Temperature: 57.9 F (14.4 C)
Dew Point: 46.9 F (8.3 C)
Relative Humidity: 66%
Pressure (altimeter): 30.09 in. Hg (1018 hPa)
Pressure tendency: 0.05 inches (1.7 hPa) higher than three hours ago
ob: KONT 100253Z 26005KT 10SM CLR 14/08 A3009 RMK AO2 SLP185 T01440083 53017
cycle: 3

Station Type Date Time Source
KONT TAF 2019/12/09 18:22 UTC NOAA

TAF KONT 091720Z 0918/1024 VRB03KT 6SM HZ SKC
FM092200 26008KT P6SM SKC
FM100200 VRB04KT P6SM SKC

Example: see airport list